createdAt,value
2023-12-08T00:00:01.464Z,14.73
2023-12-08T00:02:34.029Z,16.58
2023-12-08T00:05:02.268Z,15.93
2023-12-08T00:07:30.420Z,17.95
2023-12-08T00:09:59.002Z,15.25
2023-12-08T00:12:27.394Z,13.40
2023-12-08T00:14:55.941Z,14.45
2023-12-08T00:17:25.133Z,14.63
2023-12-08T00:19:55.042Z,15.32
2023-12-08T00:22:23.201Z,14.15
2023-12-08T00:24:52.453Z,14.10
2023-12-08T00:27:21.030Z,15.40
2023-12-08T00:29:49.225Z,11.10
2023-12-08T00:32:17.828Z,12.27
2023-12-08T00:34:47.577Z,13.20
2023-12-08T00:37:17.789Z,16.05
2023-12-08T00:39:45.907Z,12.32
2023-12-08T00:42:14.172Z,12.37
2023-12-08T00:44:42.469Z,14.75
2023-12-08T00:47:10.619Z,13.73
2023-12-08T00:49:38.990Z,11.88
2023-12-08T00:52:07.664Z,11.82
2023-12-08T00:54:37.250Z,16.00
2023-12-08T00:57:05.949Z,15.13
2023-12-08T00:59:34.008Z,13.00
2023-12-08T01:02:02.329Z,14.73
2023-12-08T01:04:30.814Z,16.20
2023-12-08T01:06:58.960Z,13.67
2023-12-08T01:09:27.684Z,12.80
2023-12-08T01:11:57.550Z,12.48
2023-12-08T01:14:25.668Z,16.40
2023-12-08T01:16:54.146Z,14.00
2023-12-08T01:19:22.590Z,11.93
2023-12-08T01:21:50.975Z,12.98
2023-12-08T01:24:19.506Z,14.60
2023-12-08T01:26:48.315Z,12.15
2023-12-08T01:29:18.143Z,13.48
2023-12-08T01:31:46.898Z,13.57
2023-12-08T01:34:15.216Z,13.15
2023-12-08T01:36:44.491Z,12.52
2023-12-08T01:39:14.171Z,11.40
2023-12-08T01:41:42.832Z,14.65
2023-12-08T01:44:11.109Z,13.50
2023-12-08T01:46:41.014Z,13.48
2023-12-08T01:49:10.340Z,12.93
2023-12-08T01:51:38.843Z,12.48
2023-12-08T01:54:08.536Z,11.70
2023-12-08T01:56:37.167Z,13.33
2023-12-08T01:59:06.150Z,14.02
2023-12-08T02:01:36.431Z,15.07
2023-12-08T02:04:06.497Z,13.05
2023-12-08T02:06:35.643Z,14.07
2023-12-08T02:09:04.020Z,11.40
2023-12-08T02:11:32.536Z,11.73
2023-12-08T02:14:01.183Z,13.20
2023-12-08T02:16:35.893Z,13.13
2023-12-08T02:19:08.581Z,12.30
2023-12-08T02:21:37.765Z,14.30
2023-12-08T02:24:08.166Z,8.98
2023-12-08T02:26:37.215Z,12.10
2023-12-08T02:29:09.042Z,12.85
2023-12-08T02:31:40.912Z,15.30
2023-12-08T02:34:10.974Z,12.03
2023-12-08T02:36:40.692Z,11.13
2023-12-08T02:39:12.794Z,14.50
2023-12-08T02:41:40.937Z,14.05
2023-12-08T02:44:09.288Z,17.52
2023-12-08T02:46:37.435Z,14.60
2023-12-08T02:49:05.728Z,19.52
2023-12-08T02:51:34.200Z,23.05
2023-12-08T02:54:02.562Z,20.70
2023-12-08T02:56:32.298Z,17.45
2023-12-08T02:59:00.457Z,14.83
2023-12-08T03:01:28.729Z,18.08
2023-12-08T03:03:57.060Z,14.63
2023-12-08T03:06:25.242Z,15.13
2023-12-08T03:08:53.757Z,12.98
2023-12-08T03:11:22.032Z,12.20
2023-12-08T03:13:51.631Z,10.45
2023-12-08T03:16:20.032Z,11.65
2023-12-08T03:18:48.619Z,13.00
2023-12-08T03:21:23.737Z,14.02
2023-12-08T03:23:52.509Z,17.47
2023-12-08T03:26:21.720Z,15.57
2023-12-08T03:28:51.406Z,19.98
2023-12-08T03:31:27.711Z,22.10
2023-12-08T03:33:56.454Z,18.95
2023-12-08T03:36:24.793Z,17.10
2023-12-08T03:38:52.950Z,19.02
2023-12-08T03:41:21.148Z,16.15
2023-12-08T03:43:49.401Z,13.10
2023-12-08T03:46:19.394Z,13.20
2023-12-08T03:48:50.944Z,13.70
2023-12-08T03:51:20.575Z,13.85
2023-12-08T03:53:48.973Z,11.75
2023-12-08T03:56:17.045Z,15.00
2023-12-08T03:58:45.087Z,13.07
2023-12-08T04:01:19.975Z,12.70
2023-12-08T04:03:48.547Z,13.45
2023-12-08T04:06:16.880Z,12.82
2023-12-08T04:08:45.075Z,13.40
2023-12-08T04:11:13.257Z,12.75
2023-12-08T04:13:41.680Z,12.93
2023-12-08T04:16:10.701Z,10.50
2023-12-08T04:18:40.353Z,11.07
2023-12-08T04:21:08.758Z,11.05
2023-12-08T04:23:38.176Z,15.27
2023-12-08T04:26:08.879Z,13.30
2023-12-08T04:28:37.412Z,16.00
2023-12-08T04:31:05.893Z,16.77
2023-12-08T04:33:34.870Z,14.95
2023-12-08T04:36:04.686Z,15.05
2023-12-08T04:38:32.651Z,14.63
2023-12-08T04:41:00.909Z,12.63
2023-12-08T04:43:29.188Z,13.05
2023-12-08T04:45:57.422Z,14.40
2023-12-08T04:48:25.705Z,14.52
2023-12-08T04:50:53.897Z,13.40
2023-12-08T04:53:23.398Z,15.00
2023-12-08T04:55:51.399Z,13.02
2023-12-08T04:58:21.730Z,15.10
2023-12-08T05:00:53.026Z,13.02
2023-12-08T05:03:21.375Z,13.87
2023-12-08T05:05:50.217Z,11.57
2023-12-08T05:08:18.347Z,10.90
2023-12-08T05:10:47.920Z,12.75
2023-12-08T05:13:16.398Z,13.18
2023-12-08T05:15:45.012Z,13.23
2023-12-08T05:18:14.480Z,11.27
2023-12-08T05:20:43.083Z,14.38
2023-12-08T05:23:11.499Z,14.13
2023-12-08T05:25:39.720Z,12.52
2023-12-08T05:28:09.692Z,12.70
2023-12-08T05:30:37.936Z,12.27
2023-12-08T05:33:06.358Z,16.70
2023-12-08T05:35:34.763Z,12.70
2023-12-08T05:38:03.205Z,14.57
2023-12-08T05:40:31.327Z,15.23
2023-12-08T05:42:59.520Z,11.82
2023-12-08T05:45:28.988Z,13.30
2023-12-08T05:47:57.543Z,13.30
2023-12-08T05:50:25.642Z,15.27
2023-12-08T05:52:53.640Z,12.90
2023-12-08T05:55:21.969Z,10.40
2023-12-08T05:57:50.341Z,11.15
2023-12-08T06:00:20.268Z,14.98
2023-12-08T06:02:50.507Z,13.27
2023-12-08T06:05:19.621Z,13.03
2023-12-08T06:07:47.702Z,13.30
2023-12-08T06:10:15.848Z,12.68
2023-12-08T06:12:43.929Z,14.65
2023-12-08T06:15:13.239Z,12.60
2023-12-08T06:17:41.418Z,19.00
2023-12-08T06:20:12.677Z,13.25
2023-12-08T06:22:41.207Z,11.98
2023-12-08T06:25:10.510Z,12.88
2023-12-08T06:27:38.817Z,12.65
2023-12-08T06:30:09.799Z,14.43
2023-12-08T06:32:37.909Z,13.15
2023-12-08T06:35:06.631Z,14.52
2023-12-08T06:37:36.217Z,12.13
2023-12-08T06:40:05.846Z,14.02
2023-12-08T06:42:33.972Z,13.77
2023-12-08T06:45:01.977Z,15.07
2023-12-08T06:47:30.070Z,13.35
2023-12-08T06:49:58.584Z,12.85
2023-12-08T06:52:26.617Z,13.45
2023-12-08T06:54:55.956Z,13.47
2023-12-08T06:57:24.173Z,15.38
2023-12-08T06:59:54.518Z,13.15
2023-12-08T07:02:22.637Z,15.32
2023-12-08T07:04:50.921Z,13.23
2023-12-08T07:07:18.970Z,14.73
2023-12-08T07:09:47.172Z,13.85
2023-12-08T07:12:16.786Z,14.48
2023-12-08T07:14:44.874Z,13.63
2023-12-08T07:17:13.056Z,16.77
2023-12-08T07:19:42.511Z,16.80
2023-12-08T07:22:10.797Z,15.68
2023-12-08T07:24:39.162Z,14.18
2023-12-08T07:27:07.699Z,15.70
2023-12-08T07:29:37.445Z,14.10
2023-12-08T07:32:07.455Z,18.43
2023-12-08T07:34:35.469Z,16.40
2023-12-08T07:37:03.691Z,17.02
2023-12-08T07:39:31.936Z,15.07
2023-12-08T07:42:00.396Z,18.13
2023-12-08T07:44:28.435Z,16.90
2023-12-08T07:46:57.765Z,20.30
2023-12-08T07:49:26.063Z,16.23
2023-12-08T07:51:54.160Z,19.02
2023-12-08T07:54:22.183Z,18.83
2023-12-08T07:56:50.373Z,19.50
2023-12-08T07:59:18.631Z,17.85
2023-12-08T08:01:46.622Z,18.58
2023-12-08T08:04:16.117Z,16.13
2023-12-08T08:06:44.362Z,21.63
2023-12-08T08:09:12.470Z,19.63
2023-12-08T08:11:40.909Z,17.08
2023-12-08T08:14:08.949Z,18.85
2023-12-08T08:16:37.277Z,18.33
2023-12-08T08:19:05.327Z,19.33
2023-12-08T08:21:34.983Z,17.67
2023-12-08T08:24:03.420Z,15.43
2023-12-08T08:26:31.400Z,16.33
2023-12-08T08:28:59.442Z,18.38
2023-12-08T08:31:27.988Z,15.02
2023-12-08T08:33:56.358Z,17.93
2023-12-08T08:36:27.206Z,17.00
2023-12-08T08:38:56.584Z,16.52
2023-12-08T08:41:25.121Z,18.60
2023-12-08T08:43:53.320Z,19.05
2023-12-08T08:46:21.366Z,20.97
2023-12-08T08:48:49.858Z,15.65
2023-12-08T08:51:18.521Z,15.07
2023-12-08T08:53:46.917Z,14.77
2023-12-08T08:56:16.413Z,18.00
2023-12-08T08:58:44.512Z,15.40
2023-12-08T09:01:12.936Z,17.75
2023-12-08T09:03:41.311Z,19.52
2023-12-08T09:06:09.586Z,20.58
2023-12-08T09:08:38.487Z,18.05
2023-12-08T09:11:06.717Z,20.90
2023-12-08T09:13:36.208Z,17.35
2023-12-08T09:16:05.377Z,21.45
2023-12-08T09:18:33.586Z,18.63
2023-12-08T09:21:02.208Z,21.40
2023-12-08T09:23:30.415Z,16.03
2023-12-08T09:25:58.643Z,17.20
2023-12-08T09:28:26.890Z,17.35
2023-12-08T09:30:56.504Z,18.83
2023-12-08T09:33:25.635Z,18.40
2023-12-08T09:35:56.324Z,16.63
2023-12-08T09:38:31.445Z,19.05
2023-12-08T09:41:05.630Z,15.02
2023-12-08T09:43:43.199Z,14.45
2023-12-08T09:46:15.637Z,19.45
2023-12-08T09:48:47.170Z,15.60
2023-12-08T09:51:16.440Z,16.55
2023-12-08T09:53:47.160Z,17.58
2023-12-08T09:56:16.916Z,17.10
2023-12-08T09:58:47.161Z,17.90
2023-12-08T10:01:18.433Z,17.50
2023-12-08T10:03:46.945Z,19.33
2023-12-08T10:06:16.061Z,17.83
2023-12-08T10:08:45.384Z,14.90
2023-12-08T10:11:13.545Z,17.45
2023-12-08T10:13:41.954Z,19.70
2023-12-08T10:16:10.419Z,18.95
2023-12-08T10:18:40.122Z,16.45
2023-12-08T10:21:16.702Z,17.23
2023-12-08T10:23:45.945Z,15.55
2023-12-08T10:26:15.073Z,15.30
2023-12-08T10:28:44.039Z,16.80
2023-12-08T10:31:12.352Z,18.42
2023-12-08T10:33:43.448Z,17.48
2023-12-08T10:36:12.556Z,16.02
2023-12-08T10:38:41.509Z,18.40
2023-12-08T10:41:10.922Z,15.60
2023-12-08T10:43:40.756Z,15.38
2023-12-08T10:46:09.918Z,16.40
2023-12-08T10:48:38.870Z,14.90
2023-12-08T10:51:14.794Z,17.73
2023-12-08T10:53:45.594Z,15.98
2023-12-08T10:56:17.864Z,17.23
2023-12-08T10:58:51.418Z,21.40
2023-12-08T11:01:22.881Z,17.98
2023-12-08T11:04:03.818Z,18.53
2023-12-08T11:06:39.964Z,16.75
2023-12-08T11:09:10.844Z,16.52
2023-12-08T11:11:45.253Z,18.10
2023-12-08T11:14:19.130Z,16.02
2023-12-08T11:16:52.815Z,16.93
2023-12-08T11:19:24.585Z,17.95
2023-12-08T11:21:55.127Z,18.05
2023-12-08T11:24:23.908Z,17.15
2023-12-08T11:26:56.180Z,16.33
2023-12-08T11:29:31.849Z,15.57
2023-12-08T11:32:08.531Z,19.42
2023-12-08T11:34:40.027Z,22.38
2023-12-08T11:37:10.965Z,19.92
2023-12-08T11:39:43.963Z,20.27
2023-12-08T11:42:13.520Z,19.73
2023-12-08T11:44:44.452Z,16.83
2023-12-08T11:47:16.895Z,17.25
2023-12-08T11:49:46.532Z,20.05
2023-12-08T11:52:19.973Z,20.42
2023-12-08T11:55:13.467Z,19.57
2023-12-08T11:57:55.264Z,18.40
2023-12-08T12:00:25.815Z,20.02
2023-12-08T12:02:55.741Z,18.63
2023-12-08T12:05:24.500Z,20.25
2023-12-08T12:07:56.021Z,19.83
2023-12-08T12:10:26.948Z,20.05
2023-12-08T12:12:57.852Z,17.02
2023-12-08T12:15:27.245Z,19.55
2023-12-08T12:17:55.906Z,19.23
2023-12-08T12:20:24.405Z,19.17
2023-12-08T12:22:52.322Z,20.92
2023-12-08T12:25:21.935Z,18.65
2023-12-08T12:27:50.368Z,18.40
2023-12-08T12:30:18.714Z,18.20
2023-12-08T12:32:47.183Z,19.07
2023-12-08T12:35:16.461Z,17.83
2023-12-08T12:37:44.927Z,19.65
2023-12-08T12:40:14.784Z,17.85
2023-12-08T12:42:46.942Z,20.77
2023-12-08T12:45:28.581Z,19.50
2023-12-08T12:48:09.282Z,19.35
2023-12-08T12:50:47.772Z,19.20
2023-12-08T12:53:16.369Z,21.02
2023-12-08T12:55:44.657Z,20.25
2023-12-08T12:58:21.112Z,18.73
2023-12-08T13:00:49.413Z,20.27
2023-12-08T13:03:19.429Z,19.48
2023-12-08T13:05:49.249Z,16.45
2023-12-08T13:08:18.431Z,17.90
2023-12-08T13:10:47.144Z,21.43
2023-12-08T13:13:15.232Z,21.13
2023-12-08T13:15:45.717Z,19.98
2023-12-08T13:18:14.814Z,23.60
2023-12-08T13:20:43.692Z,18.35
2023-12-08T13:23:11.879Z,19.90
2023-12-08T13:25:39.934Z,18.20
2023-12-08T13:28:07.952Z,21.02
2023-12-08T13:30:36.612Z,22.38
2023-12-08T13:33:07.614Z,21.95
2023-12-08T13:35:36.195Z,20.67
2023-12-08T13:38:04.277Z,20.90
2023-12-08T13:40:32.410Z,19.63
2023-12-08T13:43:00.424Z,20.98
2023-12-08T13:45:28.479Z,21.20
2023-12-08T13:47:57.068Z,20.47
2023-12-08T13:50:27.620Z,19.55
2023-12-08T13:52:55.621Z,21.83
2023-12-08T13:55:23.883Z,19.83
2023-12-08T13:57:51.944Z,21.15
2023-12-08T14:00:20.517Z,21.47
2023-12-08T14:02:48.735Z,19.20
2023-12-08T14:05:17.943Z,20.02
2023-12-08T14:07:48.953Z,21.58
2023-12-08T14:10:17.021Z,21.88
2023-12-08T14:12:46.018Z,22.60
2023-12-08T14:15:14.262Z,20.60
2023-12-08T14:17:42.390Z,23.02
2023-12-08T14:20:12.867Z,21.75
2023-12-08T14:22:40.951Z,24.25
2023-12-08T14:25:11.029Z,21.13
2023-12-08T14:27:39.266Z,21.17
2023-12-08T14:30:09.972Z,21.90
2023-12-08T14:32:40.147Z,21.77
2023-12-08T14:35:17.937Z,24.55
2023-12-08T14:40:21.351Z,20.40
2023-12-08T14:42:49.669Z,22.02
2023-12-08T14:45:18.019Z,20.40
2023-12-08T14:47:46.775Z,19.20
2023-12-08T14:50:15.017Z,20.97
2023-12-08T14:52:43.014Z,21.42
2023-12-08T14:55:16.317Z,20.95
2023-12-08T14:57:47.269Z,22.10
2023-12-08T15:00:16.323Z,19.05
2023-12-08T15:02:45.719Z,17.83
2023-12-08T15:05:14.087Z,20.13
2023-12-08T15:07:42.665Z,19.58
2023-12-08T15:10:11.613Z,19.63
2023-12-08T15:12:39.773Z,23.90
2023-12-08T15:18:20.487Z,23.33
2023-12-08T15:20:55.307Z,21.50
2023-12-08T15:23:25.015Z,22.58
2023-12-08T15:25:57.187Z,21.08
2023-12-08T15:28:25.372Z,21.90
2023-12-08T15:31:37.913Z,21.00
2023-12-08T15:34:07.396Z,25.70
2023-12-08T15:36:35.796Z,22.30
2023-12-08T15:39:04.296Z,28.58
2023-12-08T15:41:32.277Z,34.57
2023-12-08T15:44:00.110Z,20.73
2023-12-08T15:46:27.814Z,20.20
2023-12-08T15:48:55.676Z,22.30
2023-12-08T15:51:25.029Z,20.10
2023-12-08T15:53:53.240Z,21.70
2023-12-08T15:56:21.037Z,24.80
2023-12-08T15:58:48.940Z,29.80
2023-12-08T16:01:19.924Z,33.60
2023-12-08T16:03:47.829Z,25.15
2023-12-08T16:06:16.056Z,30.10
2023-12-08T16:08:46.040Z,28.65
2023-12-08T16:11:18.222Z,24.05
2023-12-08T16:13:47.379Z,20.75
2023-12-08T16:16:15.432Z,25.20
2023-12-08T16:18:43.546Z,23.60
2023-12-08T16:21:21.680Z,19.25
2023-12-08T16:23:51.042Z,26.77
2023-12-08T16:26:19.201Z,24.80
2023-12-08T16:28:47.569Z,23.90
2023-12-08T16:31:15.574Z,25.57
2023-12-08T16:33:43.508Z,24.05
2023-12-08T16:36:11.467Z,24.90
2023-12-08T16:38:40.198Z,25.08
2023-12-08T16:41:10.413Z,25.73
2023-12-08T16:43:38.240Z,26.87
2023-12-08T16:46:06.284Z,24.65
2023-12-08T16:48:34.391Z,24.45
2023-12-08T16:51:03.287Z,23.48
2023-12-08T16:53:31.444Z,23.27
2023-12-08T16:55:59.298Z,22.87
2023-12-08T16:58:28.526Z,22.98
2023-12-08T17:00:56.329Z,28.90
2023-12-08T17:03:24.264Z,25.63
2023-12-08T17:05:52.164Z,23.52
2023-12-08T17:08:20.422Z,24.07
2023-12-08T17:10:48.429Z,25.85
2023-12-08T17:13:16.300Z,27.52
2023-12-08T17:15:45.938Z,28.98
2023-12-08T17:18:14.279Z,28.80
2023-12-08T17:20:42.246Z,26.27
2023-12-08T17:23:10.408Z,23.27
2023-12-08T17:25:38.231Z,25.88
2023-12-08T17:28:06.705Z,30.58
2023-12-08T17:30:34.759Z,28.25
2023-12-08T17:33:04.162Z,29.40
2023-12-08T17:35:32.104Z,23.92
2023-12-08T17:37:59.921Z,27.73
2023-12-08T17:40:29.861Z,26.75
2023-12-08T17:42:57.816Z,31.33
2023-12-08T17:45:26.169Z,36.70
2023-12-08T17:47:54.182Z,46.03
2023-12-08T17:50:23.559Z,27.92
2023-12-08T17:52:51.449Z,26.45
2023-12-08T17:55:19.368Z,31.05
2023-12-08T17:57:47.230Z,37.80
2023-12-08T18:00:16.882Z,26.38
2023-12-08T18:02:44.961Z,24.73
2023-12-08T18:05:15.169Z,23.05
2023-12-08T18:07:44.626Z,24.50
2023-12-08T18:10:12.528Z,24.30
2023-12-08T18:12:40.710Z,21.48
2023-12-08T18:15:09.289Z,21.50
2023-12-08T18:17:37.179Z,25.08
2023-12-08T18:20:06.331Z,23.95
2023-12-08T18:22:36.944Z,24.73
2023-12-08T18:25:06.833Z,24.95
2023-12-08T18:27:46.618Z,25.02
2023-12-08T18:30:22.816Z,23.17
2023-12-08T18:32:51.037Z,24.52
2023-12-08T18:35:19.825Z,24.17
2023-12-08T18:37:49.018Z,24.77
2023-12-08T18:40:18.537Z,30.58
2023-12-08T18:42:48.429Z,25.55
2023-12-08T18:45:16.701Z,27.67
2023-12-08T18:47:46.914Z,23.63
2023-12-08T18:50:16.103Z,26.55
2023-12-08T18:52:44.027Z,27.20
2023-12-08T18:55:12.438Z,31.73
2023-12-08T18:57:41.582Z,27.20
2023-12-08T19:00:10.592Z,30.70
2023-12-08T19:02:38.501Z,28.38
2023-12-08T19:05:06.695Z,47.72
2023-12-08T19:07:35.500Z,60.67
2023-12-08T19:10:03.304Z,32.13
2023-12-08T19:12:31.459Z,27.33
2023-12-08T19:15:00.766Z,27.85
2023-12-08T19:17:28.736Z,24.15
2023-12-08T19:19:56.541Z,28.58
2023-12-08T19:22:24.669Z,28.15
2023-12-08T19:24:53.186Z,24.57
2023-12-08T19:27:21.135Z,25.42
2023-12-08T19:29:49.027Z,24.85
2023-12-08T19:32:18.777Z,25.88
2023-12-08T19:34:47.925Z,26.80
2023-12-08T19:37:24.212Z,21.40
2023-12-08T19:39:55.584Z,27.25
2023-12-08T19:42:24.866Z,22.30
2023-12-08T19:44:54.454Z,23.27
2023-12-08T19:47:24.138Z,27.50
2023-12-08T19:49:52.177Z,24.97
2023-12-08T19:52:21.696Z,25.48
2023-12-08T19:54:54.841Z,27.40
2023-12-08T19:57:25.247Z,25.58
2023-12-08T19:59:54.689Z,29.35
2023-12-08T20:02:25.688Z,23.37
2023-12-08T20:04:54.105Z,25.33
2023-12-08T20:07:24.505Z,26.65
2023-12-08T20:09:55.131Z,29.67
2023-12-08T20:12:25.543Z,30.55
2023-12-08T20:14:55.005Z,28.00
2023-12-08T20:17:24.464Z,27.25
2023-12-08T20:19:53.563Z,25.92
2023-12-08T20:22:22.789Z,28.17
2023-12-08T20:24:50.893Z,22.05
2023-12-08T20:27:19.347Z,27.33
2023-12-08T20:29:47.496Z,29.10
2023-12-08T20:32:15.360Z,28.90
2023-12-08T20:34:44.687Z,32.83
2023-12-08T20:37:13.962Z,25.13
2023-12-08T20:39:44.004Z,28.40
2023-12-08T20:42:12.354Z,27.42
2023-12-08T20:44:40.347Z,25.58
2023-12-08T20:47:08.153Z,24.35
2023-12-08T20:49:36.124Z,28.60
2023-12-08T20:52:06.658Z,29.40
2023-12-08T20:54:34.731Z,27.88
2023-12-08T20:57:02.739Z,23.25
2023-12-08T20:59:31.108Z,28.20
2023-12-08T21:02:00.013Z,29.95
2023-12-08T21:04:28.388Z,23.73
2023-12-08T21:06:57.482Z,30.42
2023-12-08T21:09:26.926Z,25.13
2023-12-08T21:11:54.976Z,27.90
2023-12-08T21:14:24.162Z,26.77
2023-12-08T21:16:52.286Z,28.53
2023-12-08T21:19:23.537Z,32.20
2023-12-08T21:21:52.289Z,24.38
2023-12-08T21:24:20.730Z,43.13
2023-12-08T21:26:50.422Z,50.78
2023-12-08T21:29:18.535Z,34.47
2023-12-08T21:31:47.500Z,23.45
2023-12-08T21:34:15.883Z,28.73
2023-12-08T21:36:43.884Z,25.33
2023-12-08T21:39:12.397Z,26.63
2023-12-08T21:41:40.416Z,35.87
2023-12-08T21:44:11.016Z,33.42
2023-12-08T21:46:38.832Z,33.22
2023-12-08T21:49:07.113Z,32.25
2023-12-08T21:51:36.862Z,26.13
2023-12-08T21:54:05.051Z,24.17
2023-12-08T21:56:33.151Z,26.55
2023-12-08T21:59:00.994Z,25.90
2023-12-08T22:01:30.233Z,24.63
2023-12-08T22:03:59.097Z,30.02
2023-12-08T22:06:27.688Z,25.93
2023-12-08T22:08:55.626Z,24.90
2023-12-08T22:11:23.588Z,27.27
2023-12-08T22:13:51.590Z,22.88
2023-12-08T22:16:22.955Z,24.33
2023-12-08T22:18:53.130Z,24.17
2023-12-08T22:21:21.811Z,25.60
2023-12-08T22:23:49.855Z,23.27
2023-12-08T22:26:18.168Z,22.27
2023-12-08T22:28:46.336Z,26.13
2023-12-08T22:31:14.761Z,24.10
2023-12-08T22:33:42.777Z,21.65
2023-12-08T22:36:12.302Z,23.85
2023-12-08T22:38:42.462Z,24.95
2023-12-08T22:41:10.506Z,23.75
2023-12-08T22:43:38.481Z,25.13
2023-12-08T22:46:07.015Z,22.45
2023-12-08T22:48:35.045Z,21.48
2023-12-08T22:51:07.794Z,22.10
2023-12-08T22:53:44.052Z,21.60
2023-12-08T22:56:12.568Z,22.47
2023-12-08T22:58:40.991Z,21.65
2023-12-08T23:01:09.334Z,19.00
2023-12-08T23:03:37.582Z,17.27
2023-12-08T23:06:06.372Z,17.77
2023-12-08T23:08:34.416Z,23.17
2023-12-08T23:11:05.281Z,17.92
2023-12-08T23:13:33.340Z,22.50
2023-12-08T23:16:02.334Z,17.17
2023-12-08T23:18:30.268Z,20.08
2023-12-08T23:20:58.917Z,17.73
2023-12-08T23:23:27.040Z,17.65
2023-12-08T23:25:55.331Z,18.02
2023-12-08T23:28:24.479Z,16.75
2023-12-08T23:30:57.878Z,18.83
2023-12-08T23:33:31.406Z,20.33
2023-12-08T23:35:59.612Z,21.70
2023-12-08T23:38:27.695Z,16.27
2023-12-08T23:40:55.738Z,15.90
2023-12-08T23:43:25.222Z,16.27
2023-12-08T23:45:53.175Z,19.00
2023-12-08T23:48:21.414Z,15.05
2023-12-08T23:50:49.596Z,14.95
2023-12-08T23:53:18.707Z,16.20
2023-12-08T23:55:47.232Z,15.98
2023-12-08T23:58:15.304Z,15.10
